createdAt,value
2022-11-21T00:00:10.306Z,5.26
2022-11-21T00:01:10.219Z,5.31
2022-11-21T00:02:10.234Z,5.31
2022-11-21T00:03:10.069Z,5.31
2022-11-21T00:04:09.971Z,5.28
2022-11-21T00:05:09.881Z,5.29
2022-11-21T00:06:09.800Z,5.36
2022-11-21T00:07:09.763Z,5.38
2022-11-21T00:08:09.636Z,5.36
2022-11-21T00:09:09.547Z,5.41
2022-11-21T00:10:09.467Z,5.44
2022-11-21T00:11:09.382Z,5.41
2022-11-21T00:12:09.297Z,5.47
2022-11-21T00:13:09.215Z,5.38
2022-11-21T00:14:09.133Z,5.47
2022-11-21T00:15:09.051Z,5.47
2022-11-21T00:16:08.965Z,5.44
2022-11-21T00:17:08.877Z,5.42
2022-11-21T00:18:08.792Z,5.38
2022-11-21T00:19:08.708Z,5.57
2022-11-21T00:20:08.626Z,5.54
2022-11-21T00:21:08.541Z,5.39
2022-11-21T00:22:08.458Z,5.53
2022-11-21T00:23:08.372Z,5.56
2022-11-21T00:24:08.293Z,5.54
2022-11-21T00:25:08.204Z,5.50
2022-11-21T00:26:08.124Z,5.52
2022-11-21T00:27:08.042Z,5.56
2022-11-21T00:28:07.950Z,5.53
2022-11-21T00:29:07.865Z,5.56
2022-11-21T00:30:07.788Z,5.56
2022-11-21T00:31:07.695Z,5.59
2022-11-21T00:32:07.615Z,5.54
2022-11-21T00:33:07.531Z,5.62
2022-11-21T00:34:07.448Z,5.57
2022-11-21T00:35:07.364Z,5.62
2022-11-21T00:36:07.289Z,5.59
2022-11-21T00:37:07.193Z,5.54
2022-11-21T00:38:07.116Z,5.63
2022-11-21T00:39:07.046Z,5.63
2022-11-21T00:40:06.948Z,5.59
2022-11-21T00:41:06.866Z,5.57
2022-11-21T00:42:06.777Z,5.54
2022-11-21T00:43:06.696Z,5.62
2022-11-21T00:44:06.611Z,5.68
2022-11-21T00:45:06.522Z,5.59
2022-11-21T00:46:06.444Z,5.63
2022-11-21T00:47:06.359Z,5.68
2022-11-21T00:48:06.274Z,5.60
2022-11-21T00:49:06.189Z,5.62
2022-11-21T00:50:06.109Z,5.47
2022-11-21T00:51:06.017Z,5.52
2022-11-21T00:52:05.934Z,5.63
2022-11-21T00:53:05.859Z,5.60
2022-11-21T00:54:05.769Z,5.67
2022-11-21T00:55:05.695Z,5.62
2022-11-21T00:56:05.604Z,5.63
2022-11-21T00:57:05.514Z,5.68
2022-11-21T00:58:05.431Z,5.67
2022-11-21T00:59:05.346Z,5.63
2022-11-21T01:00:05.270Z,5.65
2022-11-21T01:01:05.257Z,5.60
2022-11-21T01:02:05.097Z,5.65
2022-11-21T01:03:05.018Z,5.56
2022-11-21T01:04:04.929Z,5.57
2022-11-21T01:05:04.847Z,5.57
2022-11-21T01:06:04.761Z,5.57
2022-11-21T01:07:04.714Z,5.60
2022-11-21T01:08:04.590Z,5.57
2022-11-21T01:09:04.507Z,5.63
2022-11-21T01:10:04.431Z,5.57
2022-11-21T01:11:04.349Z,5.52
2022-11-21T01:12:04.257Z,5.71
2022-11-21T01:13:04.175Z,5.70
2022-11-21T01:14:04.090Z,5.68
2022-11-21T01:15:04.003Z,5.65
2022-11-21T01:16:03.925Z,5.53
2022-11-21T01:17:03.839Z,5.50
2022-11-21T01:18:03.757Z,5.68
2022-11-21T01:19:03.665Z,5.52
2022-11-21T01:20:03.584Z,5.52
2022-11-21T01:21:03.504Z,5.71
2022-11-21T01:22:03.420Z,5.62
2022-11-21T01:23:03.330Z,5.56
2022-11-21T01:24:03.251Z,5.62
2022-11-21T01:25:03.167Z,5.68
2022-11-21T01:26:03.090Z,5.65
2022-11-21T01:27:02.998Z,5.71
2022-11-21T01:28:02.914Z,5.71
2022-11-21T01:29:02.833Z,5.70
2022-11-21T01:30:02.748Z,5.67
2022-11-21T01:31:02.663Z,5.62
2022-11-21T01:32:02.580Z,5.65
2022-11-21T01:33:02.491Z,5.70
2022-11-21T01:34:02.407Z,5.70
2022-11-21T01:35:02.326Z,5.74
2022-11-21T01:36:02.239Z,5.72
2022-11-21T01:37:02.154Z,5.72
2022-11-21T01:38:02.086Z,5.80
2022-11-21T01:39:01.988Z,5.71
2022-11-21T01:40:01.905Z,5.74
2022-11-21T01:41:01.823Z,5.78
2022-11-21T01:42:01.737Z,5.80
2022-11-21T01:43:01.652Z,5.74
2022-11-21T01:44:01.568Z,5.78
2022-11-21T01:45:01.493Z,5.74
2022-11-21T01:46:01.402Z,5.70
2022-11-21T01:47:01.317Z,5.67
2022-11-21T01:48:01.234Z,5.72
2022-11-21T01:49:01.151Z,5.71
2022-11-21T01:50:01.074Z,5.71
2022-11-21T01:51:00.978Z,5.71
2022-11-21T01:52:00.897Z,5.70
2022-11-21T01:53:00.812Z,5.68
2022-11-21T01:54:00.732Z,5.70
2022-11-21T01:55:00.644Z,5.72
2022-11-21T01:56:00.597Z,5.74
2022-11-21T01:57:00.477Z,5.68
2022-11-21T01:58:00.396Z,5.63
2022-11-21T01:59:00.317Z,5.63
2022-11-21T02:00:00.224Z,5.62
2022-11-21T02:01:00.248Z,5.68
2022-11-21T02:02:00.075Z,5.70
2022-11-21T02:02:59.975Z,5.71
2022-11-21T02:03:59.894Z,5.77
2022-11-21T02:04:59.807Z,5.72
2022-11-21T02:05:59.725Z,5.74
2022-11-21T02:06:59.680Z,5.71
2022-11-21T02:07:59.557Z,5.78
2022-11-21T02:08:59.474Z,5.71
2022-11-21T02:09:59.388Z,5.70
2022-11-21T02:10:59.299Z,5.68
2022-11-21T02:11:59.221Z,5.71
2022-11-21T02:12:59.144Z,5.68
2022-11-21T02:13:59.051Z,5.71
2022-11-21T02:14:58.970Z,5.70
2022-11-21T02:15:58.887Z,5.74
2022-11-21T02:16:58.809Z,5.74
2022-11-21T02:17:58.715Z,5.75
2022-11-21T02:18:58.637Z,5.80
2022-11-21T02:19:58.547Z,5.88
2022-11-21T02:20:58.463Z,5.74
2022-11-21T02:21:58.383Z,5.74
2022-11-21T02:22:58.301Z,5.77
2022-11-21T02:24:00.492Z,5.71
2022-11-21T02:24:58.128Z,5.63
2022-11-21T02:25:58.079Z,5.68
2022-11-21T02:26:57.963Z,5.75
2022-11-21T02:27:57.878Z,5.71
2022-11-21T02:28:57.795Z,5.63
2022-11-21T02:29:57.710Z,5.75
2022-11-21T02:30:57.637Z,5.77
2022-11-21T02:31:57.540Z,5.68
2022-11-21T02:32:57.460Z,5.70
2022-11-21T02:33:57.377Z,5.71
2022-11-21T02:34:57.290Z,5.70
2022-11-21T02:35:57.209Z,5.72
2022-11-21T02:36:57.126Z,5.74
2022-11-21T02:37:57.038Z,5.80
2022-11-21T02:38:56.953Z,5.80
2022-11-21T02:39:56.870Z,5.78
2022-11-21T02:40:56.788Z,5.74
2022-11-21T02:41:56.703Z,5.78
2022-11-21T02:42:56.622Z,5.80
2022-11-21T02:43:56.537Z,5.75
2022-11-21T02:44:56.449Z,5.70
2022-11-21T02:45:56.373Z,5.80
2022-11-21T02:46:56.286Z,5.72
2022-11-21T02:48:00.848Z,5.80
2022-11-21T02:48:56.119Z,5.70
2022-11-21T02:49:56.032Z,5.74
2022-11-21T02:50:55.945Z,5.74
2022-11-21T02:51:55.862Z,5.70
2022-11-21T02:52:55.782Z,5.71
2022-11-21T02:53:55.703Z,5.68
2022-11-21T02:54:55.628Z,5.77
2022-11-21T02:55:55.527Z,5.80
2022-11-21T02:56:55.449Z,5.77
2022-11-21T02:57:57.112Z,5.72
2022-11-21T02:58:55.282Z,5.70
2022-11-21T02:59:55.199Z,5.75
2022-11-21T03:00:55.283Z,5.72
2022-11-21T03:01:55.028Z,5.77
2022-11-21T03:02:54.942Z,5.80
2022-11-21T03:03:54.856Z,5.81
2022-11-21T03:04:54.777Z,5.78
2022-11-21T03:05:54.699Z,5.81
2022-11-21T03:06:54.616Z,5.89
2022-11-21T03:07:54.527Z,5.83
2022-11-21T03:08:54.440Z,5.81
2022-11-21T03:09:54.358Z,5.80
2022-11-21T03:10:54.271Z,5.78
2022-11-21T03:11:54.188Z,5.85
2022-11-21T03:12:54.105Z,5.88
2022-11-21T03:13:54.018Z,5.80
2022-11-21T03:14:53.936Z,5.81
2022-11-21T03:15:53.861Z,5.85
2022-11-21T03:16:53.767Z,5.83
2022-11-21T03:17:53.687Z,5.86
2022-11-21T03:18:53.600Z,5.83
2022-11-21T03:19:53.518Z,5.81
2022-11-21T03:20:53.437Z,5.85
2022-11-21T03:21:53.353Z,5.83
2022-11-21T03:22:53.266Z,5.83
2022-11-21T03:23:53.191Z,5.88
2022-11-21T03:24:53.099Z,5.75
2022-11-21T03:25:53.048Z,5.81
2022-11-21T03:26:52.931Z,5.75
2022-11-21T03:27:52.849Z,5.75
2022-11-21T03:28:52.765Z,5.74
2022-11-21T03:29:52.679Z,5.71
2022-11-21T03:30:52.599Z,5.70
2022-11-21T03:31:52.512Z,5.74
2022-11-21T03:32:52.425Z,5.71
2022-11-21T03:33:52.345Z,5.70
2022-11-21T03:34:52.259Z,5.68
2022-11-21T03:35:52.176Z,5.71
2022-11-21T03:36:52.089Z,5.75
2022-11-21T03:37:52.012Z,5.77
2022-11-21T03:38:51.928Z,5.74
2022-11-21T03:39:51.842Z,5.78
2022-11-21T03:40:51.756Z,5.75
2022-11-21T03:41:51.670Z,5.72
2022-11-21T03:42:51.588Z,5.71
2022-11-21T03:43:51.511Z,5.77
2022-11-21T03:44:51.420Z,5.77
2022-11-21T03:45:51.351Z,5.74
2022-11-21T03:46:51.252Z,5.71
2022-11-21T03:47:51.170Z,5.78
2022-11-21T03:48:51.086Z,5.78
2022-11-21T03:49:51.004Z,5.80
2022-11-21T03:50:50.915Z,5.86
2022-11-21T03:51:50.835Z,5.86
2022-11-21T03:52:50.757Z,5.75
2022-11-21T03:53:50.668Z,5.77
2022-11-21T03:54:50.582Z,5.78
2022-11-21T03:55:50.499Z,5.68
2022-11-21T03:56:50.412Z,5.70
2022-11-21T03:57:50.333Z,5.71
2022-11-21T03:58:50.246Z,5.72
2022-11-21T03:59:50.163Z,5.81
2022-11-21T04:00:50.081Z,5.71
2022-11-21T04:01:50.037Z,5.71
2022-11-21T04:02:49.914Z,5.65
2022-11-21T04:03:49.827Z,5.68
2022-11-21T04:04:49.744Z,5.70
2022-11-21T04:05:49.659Z,5.62
2022-11-21T04:06:49.575Z,5.67
2022-11-21T04:07:49.490Z,5.62
2022-11-21T04:08:49.412Z,5.71
2022-11-21T04:09:49.326Z,5.59
2022-11-21T04:10:49.243Z,5.59
2022-11-21T04:11:49.154Z,5.67
2022-11-21T04:12:49.074Z,5.68
2022-11-21T04:13:48.989Z,5.63
2022-11-21T04:14:48.903Z,5.60
2022-11-21T04:15:48.823Z,5.67
2022-11-21T04:16:48.736Z,5.70
2022-11-21T04:17:48.656Z,5.60
2022-11-21T04:18:48.577Z,5.67
2022-11-21T04:19:48.496Z,5.65
2022-11-21T04:20:48.404Z,5.62
2022-11-21T04:21:48.316Z,5.60
2022-11-21T04:22:48.234Z,5.67
2022-11-21T04:23:48.156Z,5.62
2022-11-21T04:24:48.072Z,5.71
2022-11-21T04:25:47.982Z,5.65
2022-11-21T04:26:47.902Z,5.68
2022-11-21T04:27:47.811Z,5.65
2022-11-21T04:28:47.729Z,5.63
2022-11-21T04:29:47.657Z,5.54
2022-11-21T04:30:47.568Z,5.62
2022-11-21T04:31:47.481Z,5.65
2022-11-21T04:32:47.396Z,5.62
2022-11-21T04:33:47.312Z,5.68
2022-11-21T04:34:47.232Z,5.71
2022-11-21T04:35:47.146Z,5.68
2022-11-21T04:36:47.110Z,5.63
2022-11-21T04:37:46.974Z,5.70
2022-11-21T04:38:46.893Z,5.74
2022-11-21T04:39:46.811Z,5.68
2022-11-21T04:40:46.730Z,5.68
2022-11-21T04:41:46.643Z,5.63
2022-11-21T04:42:46.552Z,5.70
2022-11-21T04:43:46.474Z,5.70
2022-11-21T04:44:46.386Z,5.70
2022-11-21T04:45:46.306Z,5.63
2022-11-21T04:46:46.218Z,5.67
2022-11-21T04:47:46.140Z,5.71
2022-11-21T04:48:46.055Z,5.67
2022-11-21T04:49:45.970Z,5.67
2022-11-21T04:50:45.887Z,5.72
2022-11-21T04:51:45.800Z,5.68
2022-11-21T04:52:45.721Z,5.70
2022-11-21T04:53:45.631Z,5.67
2022-11-21T04:54:45.547Z,5.71
2022-11-21T04:55:45.467Z,5.75
2022-11-21T04:56:45.384Z,5.74
2022-11-21T04:57:45.294Z,5.72
2022-11-21T04:58:45.213Z,5.75
2022-11-21T04:59:45.128Z,5.78
2022-11-21T05:00:45.048Z,5.63
2022-11-21T05:01:44.983Z,5.71
2022-11-21T05:02:44.878Z,5.72
2022-11-21T05:03:44.790Z,5.56
2022-11-21T05:04:44.709Z,5.59
2022-11-21T05:05:44.627Z,5.60
2022-11-21T05:06:44.545Z,5.68
2022-11-21T05:07:44.487Z,5.70
2022-11-21T05:08:47.777Z,5.67
2022-11-21T05:09:44.302Z,5.59
2022-11-21T05:10:44.207Z,5.59
2022-11-21T05:11:44.128Z,5.60
2022-11-21T05:12:44.040Z,5.63
2022-11-21T05:13:43.957Z,5.62
2022-11-21T05:14:43.869Z,5.67
2022-11-21T05:15:43.787Z,5.57
2022-11-21T05:16:43.701Z,5.63
2022-11-21T05:17:43.618Z,5.56
2022-11-21T05:18:43.536Z,5.56
2022-11-21T05:19:43.450Z,5.68
2022-11-21T05:20:43.371Z,5.57
2022-11-21T05:21:43.290Z,5.50
2022-11-21T05:22:43.199Z,5.56
2022-11-21T05:23:43.116Z,5.53
2022-11-21T05:24:43.034Z,5.56
2022-11-21T05:25:42.963Z,5.53
2022-11-21T05:26:42.862Z,5.54
2022-11-21T05:27:42.778Z,5.52
2022-11-21T05:28:42.699Z,5.53
2022-11-21T05:29:42.618Z,5.50
2022-11-21T05:30:42.525Z,5.54
2022-11-21T05:31:42.443Z,5.52
2022-11-21T05:32:42.360Z,5.56
2022-11-21T05:33:42.285Z,5.50
2022-11-21T05:34:42.188Z,5.45
2022-11-21T05:35:43.660Z,5.47
2022-11-21T05:36:42.027Z,5.32
2022-11-21T05:37:41.939Z,5.47
2022-11-21T05:38:41.856Z,5.44
2022-11-21T05:39:41.770Z,5.42
2022-11-21T05:40:41.684Z,5.35
2022-11-21T05:41:41.604Z,5.35
2022-11-21T05:42:41.524Z,5.44
2022-11-21T05:43:41.436Z,5.41
2022-11-21T05:44:41.350Z,5.35
2022-11-21T05:45:41.272Z,5.34
2022-11-21T05:46:41.186Z,5.45
2022-11-21T05:47:41.104Z,5.36
2022-11-21T05:48:41.021Z,5.32
2022-11-21T05:49:40.930Z,5.36
2022-11-21T05:50:40.852Z,5.45
2022-11-21T05:51:40.761Z,5.49
2022-11-21T05:52:40.684Z,5.35
2022-11-21T05:53:40.594Z,5.45
2022-11-21T05:54:45.007Z,5.36
2022-11-21T05:55:40.427Z,5.35
2022-11-21T05:56:40.357Z,5.41
2022-11-21T05:57:40.259Z,5.41
2022-11-21T05:58:40.178Z,5.26
2022-11-21T05:59:40.090Z,5.31
2022-11-21T06:00:40.009Z,5.21
2022-11-21T06:01:39.926Z,5.28
2022-11-21T06:02:39.877Z,5.35
2022-11-21T06:03:39.757Z,5.34
2022-11-21T06:04:39.674Z,5.26
2022-11-21T06:05:39.590Z,5.23
2022-11-21T06:06:39.500Z,5.18
2022-11-21T06:07:39.445Z,5.16
2022-11-21T06:08:39.337Z,5.05
2022-11-21T06:09:39.249Z,5.11
2022-11-21T06:10:39.167Z,5.21
2022-11-21T06:11:39.090Z,5.03
2022-11-21T06:12:38.997Z,5.11
2022-11-21T06:13:38.983Z,5.05
2022-11-21T06:14:38.827Z,5.02
2022-11-21T06:15:38.743Z,5.05
2022-11-21T06:16:38.672Z,5.03
2022-11-21T06:17:38.579Z,4.95
2022-11-21T06:18:38.491Z,5.05
2022-11-21T06:19:38.419Z,4.98
2022-11-21T06:20:38.330Z,5.02
2022-11-21T06:21:38.248Z,5.00
2022-11-21T06:22:38.157Z,5.10
2022-11-21T06:23:38.077Z,5.08
2022-11-21T06:24:37.994Z,5.05
2022-11-21T06:25:37.904Z,5.21
2022-11-21T06:26:37.819Z,5.18
2022-11-21T06:27:37.734Z,5.26
2022-11-21T06:28:37.650Z,5.20
2022-11-21T06:29:37.565Z,5.21
2022-11-21T06:30:37.485Z,5.20
2022-11-21T06:31:37.398Z,5.29
2022-11-21T06:32:37.358Z,5.23
2022-11-21T06:33:37.233Z,5.26
2022-11-21T06:34:37.144Z,5.24
2022-11-21T06:35:37.062Z,5.23
2022-11-21T06:36:36.979Z,5.18
2022-11-21T06:37:36.892Z,5.16
2022-11-21T06:38:36.807Z,5.13
2022-11-21T06:39:36.729Z,5.29
2022-11-21T06:40:36.640Z,5.29
2022-11-21T06:41:36.557Z,5.23
2022-11-21T06:42:36.472Z,5.24
2022-11-21T06:43:36.389Z,5.21
2022-11-21T06:44:36.306Z,5.26
2022-11-21T06:45:36.224Z,5.26
2022-11-21T06:46:36.136Z,5.24
2022-11-21T06:47:36.055Z,5.16
2022-11-21T06:48:35.971Z,5.14
2022-11-21T06:49:35.887Z,5.24
2022-11-21T06:50:35.800Z,5.20
2022-11-21T06:51:35.716Z,5.26
2022-11-21T06:52:35.637Z,5.29
2022-11-21T06:53:35.551Z,5.32
2022-11-21T06:54:35.467Z,5.32
2022-11-21T06:55:35.380Z,5.28
2022-11-21T06:56:35.298Z,5.32
2022-11-21T06:57:35.217Z,5.34
2022-11-21T06:58:35.140Z,5.31
2022-11-21T06:59:35.045Z,5.28
2022-11-21T07:00:34.962Z,5.31
2022-11-21T07:01:34.903Z,5.29
2022-11-21T07:02:34.797Z,5.34
2022-11-21T07:03:34.705Z,5.24
2022-11-21T07:04:34.630Z,5.34
2022-11-21T07:05:34.540Z,5.32
2022-11-21T07:06:34.456Z,5.47
2022-11-21T07:07:34.447Z,5.45
2022-11-21T07:08:34.291Z,5.41
2022-11-21T07:09:34.364Z,5.41
2022-11-21T07:10:34.119Z,5.35
2022-11-21T07:11:34.040Z,5.42
2022-11-21T07:12:33.954Z,5.35
2022-11-21T07:13:33.867Z,5.35
2022-11-21T07:14:33.781Z,5.41
2022-11-21T07:15:33.698Z,5.34
2022-11-21T07:16:33.618Z,5.44
2022-11-21T07:17:33.530Z,5.44
2022-11-21T07:18:33.448Z,5.42
2022-11-21T07:19:36.321Z,5.52
2022-11-21T07:20:33.278Z,5.56
2022-11-21T07:21:33.192Z,5.53
2022-11-21T07:22:33.113Z,5.53
2022-11-21T07:23:33.029Z,5.50
2022-11-21T07:24:32.952Z,5.56
2022-11-21T07:25:36.586Z,5.63
2022-11-21T07:26:32.777Z,5.57
2022-11-21T07:27:32.695Z,5.65
2022-11-21T07:28:32.609Z,5.60
2022-11-21T07:29:32.529Z,5.63
2022-11-21T07:30:32.445Z,5.67
2022-11-21T07:31:32.363Z,5.70
2022-11-21T07:32:32.271Z,5.67
2022-11-21T07:33:32.188Z,5.67
2022-11-21T07:34:32.101Z,5.72
2022-11-21T07:35:32.018Z,5.59
2022-11-21T07:36:32.654Z,5.70
2022-11-21T07:37:31.854Z,5.71
2022-11-21T07:38:31.771Z,5.77
2022-11-21T07:39:31.685Z,5.80
2022-11-21T07:40:31.599Z,5.75
2022-11-21T07:41:31.520Z,5.75
2022-11-21T07:42:31.430Z,5.77
2022-11-21T07:43:31.347Z,5.81
2022-11-21T07:44:31.267Z,5.78
2022-11-21T07:45:31.181Z,5.83
2022-11-21T07:46:31.104Z,5.83
2022-11-21T07:47:31.017Z,5.81
2022-11-21T07:48:30.930Z,5.77
2022-11-21T07:49:31.147Z,5.95
2022-11-21T07:50:30.763Z,6.14
2022-11-21T07:51:30.684Z,6.26
2022-11-21T07:52:30.598Z,6.48
2022-11-21T07:53:30.507Z,6.63
2022-11-21T07:54:30.431Z,6.70
2022-11-21T07:55:30.343Z,6.93
2022-11-21T07:56:30.257Z,7.13
2022-11-21T07:57:30.171Z,7.29
2022-11-21T07:58:30.093Z,7.53
2022-11-21T07:59:30.276Z,7.70
2022-11-21T08:00:29.927Z,7.82
2022-11-21T08:01:29.889Z,7.93
2022-11-21T08:02:29.757Z,8.07
2022-11-21T08:03:29.672Z,8.22
2022-11-21T08:04:29.594Z,8.21
2022-11-21T08:05:29.508Z,8.42
2022-11-21T08:06:29.429Z,8.42
2022-11-21T08:07:29.380Z,8.52
2022-11-21T08:08:29.257Z,8.65
2022-11-21T08:09:29.557Z,8.70
2022-11-21T08:10:29.253Z,8.76
2022-11-21T08:11:29.009Z,8.91
2022-11-21T08:12:28.927Z,9.00
2022-11-21T08:13:28.841Z,9.13
2022-11-21T08:14:28.755Z,9.19
2022-11-21T08:15:28.679Z,9.19
2022-11-21T08:16:28.593Z,9.17
2022-11-21T08:17:28.508Z,9.28
2022-11-21T08:18:28.425Z,9.32
2022-11-21T08:19:28.679Z,9.40
2022-11-21T08:20:28.261Z,9.34
2022-11-21T08:21:28.185Z,9.40
2022-11-21T08:22:28.096Z,9.42
2022-11-21T08:23:28.024Z,9.53
2022-11-21T08:24:27.939Z,9.53
2022-11-21T08:25:27.856Z,9.47
2022-11-21T08:26:27.764Z,9.65
2022-11-21T08:27:27.683Z,9.64
2022-11-21T08:28:27.607Z,9.83
2022-11-21T08:29:27.836Z,9.74
2022-11-21T08:30:27.435Z,9.93
2022-11-21T08:31:27.355Z,9.98
2022-11-21T08:32:27.272Z,10.03
2022-11-21T08:33:27.192Z,10.03
2022-11-21T08:34:27.113Z,9.98
2022-11-21T08:35:27.029Z,9.98
2022-11-21T08:36:26.944Z,9.89
2022-11-21T08:37:26.868Z,9.88
2022-11-21T08:38:26.780Z,9.83
2022-11-21T08:39:27.128Z,9.96
2022-11-21T08:40:26.619Z,10.04
2022-11-21T08:41:26.539Z,10.16
2022-11-21T08:42:26.454Z,10.21
2022-11-21T08:43:26.373Z,10.10
2022-11-21T08:44:26.420Z,10.13
2022-11-21T08:45:26.212Z,10.25
2022-11-21T08:46:26.123Z,10.23
2022-11-21T08:47:26.049Z,10.29
2022-11-21T08:48:25.964Z,10.40
2022-11-21T08:49:25.882Z,10.28
2022-11-21T08:50:25.801Z,10.19
2022-11-21T08:51:25.718Z,10.25
2022-11-21T08:52:25.635Z,10.23
2022-11-21T08:53:25.554Z,10.26
2022-11-21T08:54:25.879Z,10.26
2022-11-21T08:55:25.392Z,10.34
2022-11-21T08:56:25.341Z,10.40
2022-11-21T08:57:25.232Z,10.41
2022-11-21T08:58:25.141Z,10.58
2022-11-21T08:59:25.063Z,10.56
2022-11-21T09:00:24.985Z,10.69
2022-11-21T09:01:24.939Z,10.67
2022-11-21T09:02:24.824Z,10.66
2022-11-21T09:03:29.679Z,10.63
2022-11-21T09:04:24.663Z,10.55
2022-11-21T09:05:24.584Z,10.58
2022-11-21T09:06:24.495Z,10.59
2022-11-21T09:07:24.545Z,10.60
2022-11-21T09:08:24.329Z,10.62
2022-11-21T09:09:25.676Z,10.51
2022-11-21T09:10:24.173Z,10.43
2022-11-21T09:11:24.087Z,10.23
2022-11-21T09:12:24.007Z,10.15
2022-11-21T09:13:23.926Z,10.11
2022-11-21T09:14:23.842Z,9.93
2022-11-21T09:15:23.763Z,9.83
2022-11-21T09:16:23.679Z,9.71
2022-11-21T09:17:23.600Z,9.63
2022-11-21T09:18:23.519Z,9.45
2022-11-21T09:19:23.437Z,9.40
2022-11-21T09:20:23.544Z,9.46
2022-11-21T09:21:23.274Z,9.38
2022-11-21T09:22:23.192Z,9.37
2022-11-21T09:23:23.114Z,9.29
2022-11-21T09:24:23.029Z,9.14
2022-11-21T09:25:22.954Z,9.19
2022-11-21T09:26:22.868Z,9.16
2022-11-21T09:27:22.789Z,9.13
2022-11-21T09:28:22.708Z,9.05
2022-11-21T09:29:22.625Z,9.00
2022-11-21T09:30:22.545Z,8.85
2022-11-21T09:31:22.460Z,8.93
2022-11-21T09:32:22.377Z,8.82
2022-11-21T09:33:22.303Z,8.85
2022-11-21T09:34:22.216Z,8.80
2022-11-21T09:35:22.136Z,8.75
2022-11-21T09:36:22.051Z,8.80
2022-11-21T09:37:21.977Z,8.75
2022-11-21T09:38:24.186Z,8.61
2022-11-21T09:39:21.818Z,8.69
2022-11-21T09:40:21.814Z,8.76
2022-11-21T09:41:21.649Z,8.70
2022-11-21T09:42:21.563Z,8.80
2022-11-21T09:43:21.481Z,8.93
2022-11-21T09:44:21.406Z,8.94
2022-11-21T09:45:21.320Z,8.91
2022-11-21T09:46:21.234Z,9.03
2022-11-21T09:47:21.166Z,9.05
2022-11-21T09:48:21.072Z,9.03
2022-11-21T09:49:20.987Z,9.14
2022-11-21T09:50:20.971Z,9.27
2022-11-21T09:51:20.832Z,9.35
2022-11-21T09:52:20.745Z,9.45
2022-11-21T09:53:20.669Z,9.63
2022-11-21T09:54:20.578Z,9.53
2022-11-21T09:55:20.501Z,9.61
2022-11-21T09:56:20.416Z,9.58
2022-11-21T09:57:20.336Z,9.63
2022-11-21T09:58:20.261Z,9.52
2022-11-21T09:59:20.175Z,9.52
2022-11-21T10:00:20.190Z,9.49
2022-11-21T10:01:20.067Z,9.53
2022-11-21T10:02:19.930Z,9.37
2022-11-21T10:03:22.456Z,9.42
2022-11-21T10:04:19.769Z,9.35
2022-11-21T10:05:19.689Z,9.35
2022-11-21T10:06:19.606Z,9.37
2022-11-21T10:07:19.552Z,9.32
2022-11-21T10:08:19.439Z,9.28
2022-11-21T10:09:19.360Z,9.13
2022-11-21T10:10:19.371Z,9.09
2022-11-21T10:11:20.105Z,9.25
2022-11-21T10:12:19.113Z,9.20
2022-11-21T10:13:19.037Z,9.09
2022-11-21T10:14:18.949Z,9.03
2022-11-21T10:15:18.870Z,9.10
2022-11-21T10:16:18.788Z,9.10
2022-11-21T10:17:18.711Z,9.00
2022-11-21T10:18:18.628Z,9.05
2022-11-21T10:19:18.545Z,9.13
2022-11-21T10:20:18.555Z,9.17
2022-11-21T10:21:18.389Z,9.02
2022-11-21T10:22:18.301Z,8.94
2022-11-21T10:23:18.219Z,8.93
2022-11-21T10:24:18.141Z,8.84
2022-11-21T10:25:20.647Z,8.84
2022-11-21T10:26:17.977Z,8.80
2022-11-21T10:27:17.893Z,8.72
2022-11-21T10:28:17.811Z,8.80
2022-11-21T10:29:17.734Z,8.79
2022-11-21T10:30:17.648Z,8.75
2022-11-21T10:31:17.564Z,8.90
2022-11-21T10:32:17.487Z,8.90
2022-11-21T10:33:17.404Z,8.90
2022-11-21T10:34:17.318Z,8.88
2022-11-21T10:35:17.247Z,8.82
2022-11-21T10:36:17.158Z,8.77
2022-11-21T10:37:17.078Z,8.79
2022-11-21T10:38:17.003Z,8.77
2022-11-21T10:39:16.914Z,8.85
2022-11-21T10:40:16.834Z,8.79
2022-11-21T10:41:16.760Z,8.61
2022-11-21T10:42:21.585Z,8.61
2022-11-21T10:43:16.587Z,8.57
2022-11-21T10:44:16.511Z,8.51
2022-11-21T10:45:16.421Z,8.54
2022-11-21T10:46:16.337Z,8.55
2022-11-21T10:47:16.260Z,8.39
2022-11-21T10:48:16.177Z,8.33
2022-11-21T10:49:16.095Z,8.43
2022-11-21T10:50:16.012Z,8.27
2022-11-21T10:51:15.937Z,8.18
2022-11-21T10:52:15.847Z,8.21
2022-11-21T10:53:15.771Z,8.24
2022-11-21T10:54:15.687Z,8.27
2022-11-21T10:55:15.606Z,8.33
2022-11-21T10:56:15.524Z,8.25
2022-11-21T10:57:15.440Z,8.42
2022-11-21T10:58:15.360Z,8.34
2022-11-21T10:59:15.282Z,8.34
2022-11-21T11:00:15.198Z,8.43
2022-11-21T11:01:15.203Z,8.42
2022-11-21T11:02:15.047Z,8.48
2022-11-21T11:03:14.952Z,8.57
2022-11-21T11:04:44.457Z,8.62
2022-11-21T11:05:14.786Z,8.68
2022-11-21T11:06:14.708Z,8.69
2022-11-21T11:07:14.672Z,8.61
2022-11-21T11:08:14.544Z,8.68
2022-11-21T11:09:14.458Z,8.76
2022-11-21T11:10:14.373Z,8.60
2022-11-21T11:11:14.298Z,8.65
2022-11-21T11:12:14.209Z,8.60
2022-11-21T11:13:44.060Z,8.58
2022-11-21T11:14:14.050Z,8.60
2022-11-21T11:15:13.969Z,8.61
2022-11-21T11:16:13.886Z,8.57
2022-11-21T11:17:13.803Z,8.55
2022-11-21T11:18:13.720Z,8.52
2022-11-21T11:19:13.641Z,8.44
2022-11-21T11:20:13.558Z,8.43
2022-11-21T11:21:13.476Z,8.42
2022-11-21T11:22:13.390Z,8.44
2022-11-21T11:23:13.312Z,8.40
2022-11-21T11:24:13.228Z,8.40
2022-11-21T11:25:13.149Z,8.34
2022-11-21T11:26:13.067Z,8.33
2022-11-21T11:27:12.982Z,8.30
2022-11-21T11:28:12.899Z,8.27
2022-11-21T11:29:12.824Z,8.18
2022-11-21T11:30:12.736Z,7.85
2022-11-21T11:31:12.655Z,7.76
2022-11-21T11:32:17.875Z,7.70
2022-11-21T11:33:12.495Z,7.64
2022-11-21T11:34:12.409Z,7.57
2022-11-21T11:35:12.327Z,7.63
2022-11-21T11:36:12.273Z,7.72
2022-11-21T11:37:12.167Z,7.64
2022-11-21T11:38:12.085Z,7.64
2022-11-21T11:39:12.003Z,7.59
2022-11-21T11:40:11.925Z,7.70
2022-11-21T11:41:11.835Z,7.79
2022-11-21T11:42:16.564Z,7.97
2022-11-21T11:43:11.674Z,8.12
2022-11-21T11:44:11.592Z,8.24
2022-11-21T11:45:11.509Z,8.42
2022-11-21T11:46:11.423Z,8.42
2022-11-21T11:47:11.347Z,8.52
2022-11-21T11:48:11.260Z,8.58
2022-11-21T11:49:20.137Z,8.66
2022-11-21T11:50:11.095Z,8.76
2022-11-21T11:51:11.017Z,8.79
2022-11-21T11:52:10.939Z,8.98
2022-11-21T11:53:10.854Z,9.03
2022-11-21T11:54:10.767Z,9.16
2022-11-21T11:55:10.687Z,9.16
2022-11-21T11:56:10.606Z,9.03
2022-11-21T11:57:10.524Z,9.10
2022-11-21T11:58:10.442Z,9.16
2022-11-21T11:59:10.361Z,9.02
2022-11-21T12:00:10.276Z,9.05
2022-11-21T12:01:10.204Z,9.06
2022-11-21T12:02:11.999Z,8.91
2022-11-21T12:03:10.034Z,8.97
2022-11-21T12:04:09.951Z,8.91
2022-11-21T12:05:09.870Z,8.82
2022-11-21T12:06:09.798Z,8.90
2022-11-21T12:09:09.581Z,8.95
2022-11-21T12:10:09.460Z,8.93
2022-11-21T12:11:09.380Z,9.13
2022-11-21T12:12:09.297Z,9.25
2022-11-21T12:13:09.226Z,9.31
2022-11-21T12:14:09.132Z,9.43
2022-11-21T12:15:09.052Z,9.52
2022-11-21T12:16:13.383Z,9.55
2022-11-21T12:17:08.890Z,9.67
2022-11-21T12:18:08.807Z,9.67
2022-11-21T12:19:08.727Z,9.67
2022-11-21T12:20:08.647Z,9.83
2022-11-21T12:21:08.564Z,9.78
2022-11-21T12:22:08.481Z,9.83
2022-11-21T12:23:08.401Z,9.89
2022-11-21T12:24:08.324Z,9.79
2022-11-21T12:25:08.238Z,9.92
2022-11-21T12:26:08.155Z,9.96
2022-11-21T12:27:08.074Z,9.98
2022-11-21T12:28:08.016Z,10.08
2022-11-21T12:29:07.919Z,10.10
2022-11-21T12:30:07.833Z,10.08
2022-11-21T12:31:07.751Z,10.18
2022-11-21T12:32:07.671Z,10.25
2022-11-21T12:33:09.174Z,10.33
2022-11-21T12:34:07.518Z,10.23
2022-11-21T12:35:07.427Z,10.26
2022-11-21T12:36:17.362Z,10.31
2022-11-21T12:37:07.265Z,10.34
2022-11-21T12:38:07.185Z,10.33
2022-11-21T12:39:07.100Z,10.36
2022-11-21T12:40:07.023Z,10.40
2022-11-21T12:41:06.945Z,10.39
2022-11-21T12:42:06.863Z,10.43
2022-11-21T12:43:06.779Z,10.36
2022-11-21T12:44:06.702Z,10.46
2022-11-21T12:45:06.617Z,10.41
2022-11-21T12:46:06.538Z,10.41
2022-11-21T12:47:06.452Z,10.40
2022-11-21T12:48:06.381Z,10.39
2022-11-21T12:49:06.298Z,10.41
2022-11-21T12:50:06.213Z,10.43
2022-11-21T12:51:06.134Z,10.37
2022-11-21T12:52:06.050Z,10.40
2022-11-21T12:53:05.969Z,10.31
2022-11-21T12:54:05.888Z,10.11
2022-11-21T12:55:05.811Z,10.16
2022-11-21T12:56:05.738Z,10.06
2022-11-21T12:57:05.649Z,10.07
2022-11-21T12:58:05.574Z,10.10
2022-11-21T12:59:05.492Z,10.04
2022-11-21T13:00:05.405Z,10.10
2022-11-21T13:01:05.348Z,10.08
2022-11-21T13:02:05.241Z,10.03
2022-11-21T13:03:05.167Z,10.13
2022-11-21T13:04:05.087Z,10.15
2022-11-21T13:05:04.999Z,10.19
2022-11-21T13:06:04.932Z,10.06
2022-11-21T13:07:04.884Z,10.15
2022-11-21T13:08:04.758Z,10.15
2022-11-21T13:09:04.681Z,10.15
2022-11-21T13:10:04.601Z,10.29
2022-11-21T13:11:05.040Z,10.25
2022-11-21T13:12:04.451Z,10.40
2022-11-21T13:13:04.358Z,10.39
2022-11-21T13:14:04.274Z,10.34
2022-11-21T13:15:04.194Z,10.16
2022-11-21T13:16:04.114Z,10.16